sensor_id;sensor_type;location;lat;lon;timestamp;P1;durP1;ratioP1;P2;durP2;ratioP2
962;SDS011;469;48.770;9.176;2023-01-04T00:05:04;15.25;;;7.70;;
962;SDS011;469;48.770;9.176;2023-01-04T00:07:48;13.88;;;7.50;;
962;SDS011;469;48.770;9.176;2023-01-04T00:10:41;15.57;;;7.15;;
962;SDS011;469;48.770;9.176;2023-01-04T00:13:28;18.50;;;8.30;;
962;SDS011;469;48.770;9.176;2023-01-04T00:16:17;18.00;;;7.80;;
962;SDS011;469;48.770;9.176;2023-01-04T00:19:00;18.05;;;7.85;;
962;SDS011;469;48.770;9.176;2023-01-04T00:21:51;15.68;;;8.68;;
962;SDS011;469;48.770;9.176;2023-01-04T00:24:46;14.00;;;7.45;;
962;SDS011;469;48.770;9.176;2023-01-04T00:27:23;14.43;;;7.45;;
962;SDS011;469;48.770;9.176;2023-01-04T00:29:52;15.55;;;8.20;;
962;SDS011;469;48.770;9.176;2023-01-04T00:35:36;17.33;;;8.73;;
962;SDS011;469;48.770;9.176;2023-01-04T00:38:11;15.32;;;7.90;;
962;SDS011;469;48.770;9.176;2023-01-04T00:41:13;17.90;;;7.65;;
962;SDS011;469;48.770;9.176;2023-01-04T00:44:09;15.80;;;8.05;;
962;SDS011;469;48.770;9.176;2023-01-04T00:47:02;14.88;;;7.72;;
962;SDS011;469;48.770;9.176;2023-01-04T00:49:52;14.32;;;7.65;;
962;SDS011;469;48.770;9.176;2023-01-04T00:55:33;13.63;;;6.60;;
962;SDS011;469;48.770;9.176;2023-01-04T00:58:23;13.57;;;7.05;;
962;SDS011;469;48.770;9.176;2023-01-04T01:00:57;13.00;;;6.78;;
962;SDS011;469;48.770;9.176;2023-01-04T01:09:53;15.00;;;7.85;;
962;SDS011;469;48.770;9.176;2023-01-04T01:12:27;12.02;;;7.10;;
962;SDS011;469;48.770;9.176;2023-01-04T01:15:04;12.65;;;6.70;;
962;SDS011;469;48.770;9.176;2023-01-04T01:17:51;8.65;;;5.18;;
962;SDS011;469;48.770;9.176;2023-01-04T01:20:22;12.68;;;6.05;;
962;SDS011;469;48.770;9.176;2023-01-04T01:23:12;12.77;;;6.40;;
962;SDS011;469;48.770;9.176;2023-01-04T01:25:52;14.75;;;6.65;;
962;SDS011;469;48.770;9.176;2023-01-04T01:28:43;13.52;;;6.70;;
962;SDS011;469;48.770;9.176;2023-01-04T01:31:33;12.63;;;6.57;;
962;SDS011;469;48.770;9.176;2023-01-04T01:36:36;13.02;;;6.75;;
962;SDS011;469;48.770;9.176;2023-01-04T01:37:05;13.77;;;6.90;;
962;SDS011;469;48.770;9.176;2023-01-04T01:39:34;13.73;;;6.47;;
962;SDS011;469;48.770;9.176;2023-01-04T01:42:20;16.40;;;6.55;;
962;SDS011;469;48.770;9.176;2023-01-04T01:48:02;13.15;;;7.25;;
962;SDS011;469;48.770;9.176;2023-01-04T01:50:37;13.55;;;6.88;;
962;SDS011;469;48.770;9.176;2023-01-04T01:53:37;14.15;;;6.65;;
962;SDS011;469;48.770;9.176;2023-01-04T01:56:32;12.40;;;6.35;;
962;SDS011;469;48.770;9.176;2023-01-04T01:59:04;12.77;;;6.00;;
962;SDS011;469;48.770;9.176;2023-01-04T02:01:44;16.45;;;6.22;;
962;SDS011;469;48.770;9.176;2023-01-04T02:04:37;10.50;;;5.70;;
962;SDS011;469;48.770;9.176;2023-01-04T02:07:36;10.82;;;5.95;;
962;SDS011;469;48.770;9.176;2023-01-04T02:10:14;14.43;;;6.75;;
962;SDS011;469;48.770;9.176;2023-01-04T02:16:31;11.70;;;5.55;;
962;SDS011;469;48.770;9.176;2023-01-04T02:19:00;13.05;;;6.57;;
962;SDS011;469;48.770;9.176;2023-01-04T02:21:46;14.68;;;6.20;;
962;SDS011;469;48.770;9.176;2023-01-04T02:24:55;11.63;;;6.40;;
962;SDS011;469;48.770;9.176;2023-01-04T02:27:59;13.18;;;6.10;;
962;SDS011;469;48.770;9.176;2023-01-04T02:33:40;10.60;;;5.57;;
962;SDS011;469;48.770;9.176;2023-01-04T02:36:27;14.63;;;6.63;;
962;SDS011;469;48.770;9.176;2023-01-04T02:39:14;9.48;;;5.25;;
962;SDS011;469;48.770;9.176;2023-01-04T02:42:11;12.80;;;5.85;;
962;SDS011;469;48.770;9.176;2023-01-04T02:44:54;10.57;;;5.55;;
962;SDS011;469;48.770;9.176;2023-01-04T02:47:36;13.02;;;6.10;;
962;SDS011;469;48.770;9.176;2023-01-04T02:50:47;11.00;;;5.15;;
962;SDS011;469;48.770;9.176;2023-01-04T02:53:28;11.82;;;5.68;;
962;SDS011;469;48.770;9.176;2023-01-04T02:56:26;9.68;;;4.85;;
962;SDS011;469;48.770;9.176;2023-01-04T02:59:40;10.80;;;5.28;;
962;SDS011;469;48.770;9.176;2023-01-04T03:02:23;11.15;;;5.13;;
962;SDS011;469;48.770;9.176;2023-01-04T03:05:13;9.45;;;5.32;;
962;SDS011;469;48.770;9.176;2023-01-04T03:08:05;11.05;;;4.93;;
962;SDS011;469;48.770;9.176;2023-01-04T03:10:37;8.85;;;4.35;;
962;SDS011;469;48.770;9.176;2023-01-04T03:13:16;8.57;;;4.60;;
962;SDS011;469;48.770;9.176;2023-01-04T03:16:10;8.35;;;4.43;;
962;SDS011;469;48.770;9.176;2023-01-04T03:18:55;9.20;;;5.03;;
962;SDS011;469;48.770;9.176;2023-01-04T03:21:42;8.93;;;5.15;;
962;SDS011;469;48.770;9.176;2023-01-04T03:27:28;9.10;;;4.22;;
962;SDS011;469;48.770;9.176;2023-01-04T03:30:15;8.63;;;4.60;;
962;SDS011;469;48.770;9.176;2023-01-04T03:33:04;9.85;;;4.85;;
962;SDS011;469;48.770;9.176;2023-01-04T03:35:53;8.00;;;4.30;;
962;SDS011;469;48.770;9.176;2023-01-04T03:38:37;8.38;;;4.28;;
962;SDS011;469;48.770;9.176;2023-01-04T03:41:24;8.15;;;4.20;;
962;SDS011;469;48.770;9.176;2023-01-04T03:44:19;6.90;;;3.35;;
962;SDS011;469;48.770;9.176;2023-01-04T03:47:07;7.72;;;4.00;;
962;SDS011;469;48.770;9.176;2023-01-04T03:49:54;6.60;;;3.65;;
962;SDS011;469;48.770;9.176;2023-01-04T03:55:17;9.65;;;4.35;;
962;SDS011;469;48.770;9.176;2023-01-04T03:57:56;7.57;;;3.83;;
962;SDS011;469;48.770;9.176;2023-01-04T04:00:38;7.65;;;3.60;;
962;SDS011;469;48.770;9.176;2023-01-04T04:03:34;5.80;;;3.47;;
962;SDS011;469;48.770;9.176;2023-01-04T04:06:24;5.22;;;2.90;;
962;SDS011;469;48.770;9.176;2023-01-04T04:09:18;5.93;;;3.30;;
962;SDS011;469;48.770;9.176;2023-01-04T04:14:43;6.43;;;2.58;;
962;SDS011;469;48.770;9.176;2023-01-04T04:17:39;7.45;;;3.13;;
962;SDS011;469;48.770;9.176;2023-01-04T04:20:26;7.97;;;3.30;;
962;SDS011;469;48.770;9.176;2023-01-04T04:23:10;6.07;;;2.85;;
962;SDS011;469;48.770;9.176;2023-01-04T04:25:56;4.85;;;2.80;;
962;SDS011;469;48.770;9.176;2023-01-04T04:28:29;7.07;;;3.05;;
962;SDS011;469;48.770;9.176;2023-01-04T04:31:45;4.88;;;2.50;;
962;SDS011;469;48.770;9.176;2023-01-04T04:37:09;6.63;;;2.33;;
962;SDS011;469;48.770;9.176;2023-01-04T04:40:01;5.32;;;2.40;;
962;SDS011;469;48.770;9.176;2023-01-04T04:42:36;4.15;;;2.45;;
962;SDS011;469;48.770;9.176;2023-01-04T04:45:05;5.05;;;2.38;;
962;SDS011;469;48.770;9.176;2023-01-04T04:47:46;6.70;;;2.40;;
962;SDS011;469;48.770;9.176;2023-01-04T04:50:26;4.72;;;2.30;;
962;SDS011;469;48.770;9.176;2023-01-04T04:53:09;8.38;;;2.65;;
962;SDS011;469;48.770;9.176;2023-01-04T04:55:44;7.00;;;2.80;;
962;SDS011;469;48.770;9.176;2023-01-04T04:58:25;4.85;;;2.67;;
962;SDS011;469;48.770;9.176;2023-01-04T05:01:03;7.38;;;3.40;;
962;SDS011;469;48.770;9.176;2023-01-04T05:04:10;6.13;;;2.50;;
962;SDS011;469;48.770;9.176;2023-01-04T05:06:48;4.28;;;2.22;;
962;SDS011;469;48.770;9.176;2023-01-04T05:09:29;4.93;;;2.17;;
962;SDS011;469;48.770;9.176;2023-01-04T05:12:00;4.10;;;2.28;;
962;SDS011;469;48.770;9.176;2023-01-04T05:14:59;4.75;;;2.67;;
962;SDS011;469;48.770;9.176;2023-01-04T05:17:35;4.45;;;2.15;;
962;SDS011;469;48.770;9.176;2023-01-04T05:20:07;4.38;;;2.42;;
962;SDS011;469;48.770;9.176;2023-01-04T05:22:39;4.75;;;2.00;;
962;SDS011;469;48.770;9.176;2023-01-04T05:25:16;5.95;;;2.10;;
962;SDS011;469;48.770;9.176;2023-01-04T05:28:07;2.55;;;1.58;;
962;SDS011;469;48.770;9.176;2023-01-04T05:30:52;3.97;;;1.90;;
962;SDS011;469;48.770;9.176;2023-01-04T05:33:20;3.80;;;2.10;;
962;SDS011;469;48.770;9.176;2023-01-04T05:35:57;5.35;;;2.08;;
962;SDS011;469;48.770;9.176;2023-01-04T05:38:38;3.50;;;2.08;;
962;SDS011;469;48.770;9.176;2023-01-04T05:41:12;5.15;;;2.40;;
962;SDS011;469;48.770;9.176;2023-01-04T05:43:58;2.97;;;1.90;;
962;SDS011;469;48.770;9.176;2023-01-04T05:46:34;4.50;;;2.28;;
962;SDS011;469;48.770;9.176;2023-01-04T05:49:04;6.45;;;2.10;;
962;SDS011;469;48.770;9.176;2023-01-04T05:51:31;4.30;;;2.10;;
962;SDS011;469;48.770;9.176;2023-01-04T05:53:58;5.28;;;2.45;;
962;SDS011;469;48.770;9.176;2023-01-04T05:56:26;3.50;;;2.08;;
962;SDS011;469;48.770;9.176;2023-01-04T05:58:53;4.72;;;2.50;;
962;SDS011;469;48.770;9.176;2023-01-04T06:01:22;4.57;;;2.17;;
962;SDS011;469;48.770;9.176;2023-01-04T06:03:49;3.92;;;2.20;;
962;SDS011;469;48.770;9.176;2023-01-04T06:06:16;4.95;;;2.20;;
962;SDS011;469;48.770;9.176;2023-01-04T06:08:43;5.90;;;2.28;;
962;SDS011;469;48.770;9.176;2023-01-04T06:11:10;4.80;;;2.60;;
962;SDS011;469;48.770;9.176;2023-01-04T06:13:38;5.10;;;2.40;;
962;SDS011;469;48.770;9.176;2023-01-04T06:16:06;7.75;;;1.70;;
962;SDS011;469;48.770;9.176;2023-01-04T06:18:33;5.00;;;2.20;;
962;SDS011;469;48.770;9.176;2023-01-04T06:21:00;5.00;;;2.33;;
962;SDS011;469;48.770;9.176;2023-01-04T06:23:27;5.28;;;2.15;;
962;SDS011;469;48.770;9.176;2023-01-04T06:25:54;3.88;;;2.03;;
962;SDS011;469;48.770;9.176;2023-01-04T06:28:21;4.97;;;1.92;;
962;SDS011;469;48.770;9.176;2023-01-04T06:30:49;4.47;;;2.38;;
962;SDS011;469;48.770;9.176;2023-01-04T06:33:18;3.60;;;1.90;;
962;SDS011;469;48.770;9.176;2023-01-04T06:35:51;5.35;;;2.20;;
962;SDS011;469;48.770;9.176;2023-01-04T06:38:18;4.10;;;1.88;;
962;SDS011;469;48.770;9.176;2023-01-04T06:40:45;5.85;;;2.25;;
962;SDS011;469;48.770;9.176;2023-01-04T06:43:12;4.40;;;2.00;;
962;SDS011;469;48.770;9.176;2023-01-04T06:45:40;4.80;;;2.17;;
962;SDS011;469;48.770;9.176;2023-01-04T06:48:08;5.05;;;2.08;;
962;SDS011;469;48.770;9.176;2023-01-04T06:50:38;3.80;;;1.50;;
962;SDS011;469;48.770;9.176;2023-01-04T06:53:05;3.92;;;1.80;;
962;SDS011;469;48.770;9.176;2023-01-04T06:55:32;5.70;;;1.88;;
962;SDS011;469;48.770;9.176;2023-01-04T06:57:59;3.47;;;1.92;;
962;SDS011;469;48.770;9.176;2023-01-04T07:00:26;3.30;;;1.90;;
962;SDS011;469;48.770;9.176;2023-01-04T07:02:53;6.32;;;2.20;;
962;SDS011;469;48.770;9.176;2023-01-04T07:05:21;4.95;;;2.30;;
962;SDS011;469;48.770;9.176;2023-01-04T07:07:48;2.80;;;1.55;;
962;SDS011;469;48.770;9.176;2023-01-04T07:10:15;4.18;;;2.20;;
962;SDS011;469;48.770;9.176;2023-01-04T07:12:42;5.55;;;2.08;;
962;SDS011;469;48.770;9.176;2023-01-04T07:15:10;4.63;;;2.38;;
962;SDS011;469;48.770;9.176;2023-01-04T07:17:37;3.53;;;2.20;;
962;SDS011;469;48.770;9.176;2023-01-04T07:20:04;5.00;;;1.90;;
962;SDS011;469;48.770;9.176;2023-01-04T07:22:33;4.38;;;1.75;;
962;SDS011;469;48.770;9.176;2023-01-04T07:25:00;3.17;;;1.50;;
962;SDS011;469;48.770;9.176;2023-01-04T07:27:27;3.17;;;1.83;;
962;SDS011;469;48.770;9.176;2023-01-04T07:29:55;4.88;;;1.42;;
962;SDS011;469;48.770;9.176;2023-01-04T07:32:22;2.97;;;1.55;;
962;SDS011;469;48.770;9.176;2023-01-04T07:34:50;2.80;;;1.52;;
962;SDS011;469;48.770;9.176;2023-01-04T07:37:17;4.15;;;1.35;;
962;SDS011;469;48.770;9.176;2023-01-04T07:39:45;2.75;;;1.27;;
962;SDS011;469;48.770;9.176;2023-01-04T07:42:13;7.97;;;1.83;;
962;SDS011;469;48.770;9.176;2023-01-04T07:44:40;3.65;;;1.33;;
962;SDS011;469;48.770;9.176;2023-01-04T07:47:08;4.13;;;1.27;;
962;SDS011;469;48.770;9.176;2023-01-04T07:49:35;4.70;;;1.50;;
962;SDS011;469;48.770;9.176;2023-01-04T07:52:02;2.58;;;1.33;;
962;SDS011;469;48.770;9.176;2023-01-04T07:54:29;2.65;;;1.45;;
962;SDS011;469;48.770;9.176;2023-01-04T07:56:58;3.13;;;1.23;;
962;SDS011;469;48.770;9.176;2023-01-04T07:59:25;5.00;;;1.60;;
962;SDS011;469;48.770;9.176;2023-01-04T08:01:52;4.07;;;1.40;;
962;SDS011;469;48.770;9.176;2023-01-04T08:04:21;7.25;;;1.67;;
962;SDS011;469;48.770;9.176;2023-01-04T08:06:48;2.85;;;1.30;;
962;SDS011;469;48.770;9.176;2023-01-04T08:09:15;4.57;;;1.25;;
962;SDS011;469;48.770;9.176;2023-01-04T08:11:43;4.63;;;1.80;;
962;SDS011;469;48.770;9.176;2023-01-04T08:14:12;5.35;;;2.13;;
962;SDS011;469;48.770;9.176;2023-01-04T08:16:40;3.45;;;1.90;;
962;SDS011;469;48.770;9.176;2023-01-04T08:19:09;3.40;;;1.20;;
962;SDS011;469;48.770;9.176;2023-01-04T08:21:37;6.45;;;1.70;;
962;SDS011;469;48.770;9.176;2023-01-04T08:24:05;2.80;;;1.10;;
962;SDS011;469;48.770;9.176;2023-01-04T08:26:32;6.28;;;1.48;;
962;SDS011;469;48.770;9.176;2023-01-04T08:28:59;3.70;;;1.50;;
962;SDS011;469;48.770;9.176;2023-01-04T08:31:29;2.65;;;1.30;;
962;SDS011;469;48.770;9.176;2023-01-04T08:33:57;3.08;;;1.50;;
962;SDS011;469;48.770;9.176;2023-01-04T08:36:25;4.78;;;1.10;;
962;SDS011;469;48.770;9.176;2023-01-04T08:38:53;4.80;;;1.50;;
962;SDS011;469;48.770;9.176;2023-01-04T08:41:20;3.50;;;1.70;;
962;SDS011;469;48.770;9.176;2023-01-04T08:43:47;4.57;;;1.20;;
962;SDS011;469;48.770;9.176;2023-01-04T08:46:15;5.18;;;1.55;;
962;SDS011;469;48.770;9.176;2023-01-04T08:48:43;6.93;;;1.60;;
962;SDS011;469;48.770;9.176;2023-01-04T08:51:11;6.10;;;1.20;;
962;SDS011;469;48.770;9.176;2023-01-04T08:53:38;4.38;;;1.40;;
962;SDS011;469;48.770;9.176;2023-01-04T08:56:06;4.28;;;1.27;;
962;SDS011;469;48.770;9.176;2023-01-04T08:58:33;3.00;;;1.38;;
962;SDS011;469;48.770;9.176;2023-01-04T09:01:01;6.30;;;1.30;;
962;SDS011;469;48.770;9.176;2023-01-04T09:03:29;3.13;;;1.30;;
962;SDS011;469;48.770;9.176;2023-01-04T09:06:02;6.10;;;1.42;;
962;SDS011;469;48.770;9.176;2023-01-04T09:08:31;3.45;;;1.30;;
962;SDS011;469;48.770;9.176;2023-01-04T09:11:02;6.47;;;1.25;;
962;SDS011;469;48.770;9.176;2023-01-04T09:13:29;2.40;;;1.30;;
962;SDS011;469;48.770;9.176;2023-01-04T09:15:58;2.95;;;1.30;;
962;SDS011;469;48.770;9.176;2023-01-04T09:18:25;1.65;;;0.95;;
962;SDS011;469;48.770;9.176;2023-01-04T09:20:52;2.85;;;1.02;;
962;SDS011;469;48.770;9.176;2023-01-04T09:23:21;2.90;;;1.20;;
962;SDS011;469;48.770;9.176;2023-01-04T09:25:48;2.67;;;1.00;;
962;SDS011;469;48.770;9.176;2023-01-04T09:28:15;5.20;;;1.10;;
962;SDS011;469;48.770;9.176;2023-01-04T09:30:42;3.78;;;1.35;;
962;SDS011;469;48.770;9.176;2023-01-04T09:33:09;4.55;;;1.40;;
962;SDS011;469;48.770;9.176;2023-01-04T09:35:36;3.05;;;1.10;;
962;SDS011;469;48.770;9.176;2023-01-04T09:38:03;5.97;;;1.15;;
962;SDS011;469;48.770;9.176;2023-01-04T09:40:33;2.53;;;1.42;;
962;SDS011;469;48.770;9.176;2023-01-04T09:43:05;2.40;;;1.10;;
962;SDS011;469;48.770;9.176;2023-01-04T09:45:35;3.67;;;1.63;;
962;SDS011;469;48.770;9.176;2023-01-04T09:48:03;4.00;;;1.35;;
962;SDS011;469;48.770;9.176;2023-01-04T09:50:32;2.38;;;1.10;;
962;SDS011;469;48.770;9.176;2023-01-04T09:53:03;3.78;;;1.35;;
962;SDS011;469;48.770;9.176;2023-01-04T09:55:33;7.57;;;1.80;;
962;SDS011;469;48.770;9.176;2023-01-04T09:58:03;4.05;;;1.50;;
962;SDS011;469;48.770;9.176;2023-01-04T10:00:32;2.80;;;1.23;;
962;SDS011;469;48.770;9.176;2023-01-04T10:03:02;6.82;;;2.80;;
962;SDS011;469;48.770;9.176;2023-01-04T10:05:31;3.70;;;1.30;;
962;SDS011;469;48.770;9.176;2023-01-04T10:07:59;4.88;;;1.30;;
962;SDS011;469;48.770;9.176;2023-01-04T10:10:40;7.70;;;1.55;;
962;SDS011;469;48.770;9.176;2023-01-04T10:13:12;2.70;;;0.90;;
962;SDS011;469;48.770;9.176;2023-01-04T10:15:41;2.20;;;0.90;;
962;SDS011;469;48.770;9.176;2023-01-04T10:18:14;1.90;;;0.90;;
962;SDS011;469;48.770;9.176;2023-01-04T10:20:50;1.67;;;0.90;;
962;SDS011;469;48.770;9.176;2023-01-04T10:23:22;4.15;;;1.02;;
962;SDS011;469;48.770;9.176;2023-01-04T10:25:52;2.30;;;1.10;;
962;SDS011;469;48.770;9.176;2023-01-04T10:28:32;6.85;;;1.15;;
962;SDS011;469;48.770;9.176;2023-01-04T10:31:01;5.03;;;1.33;;
962;SDS011;469;48.770;9.176;2023-01-04T10:33:31;7.78;;;1.48;;
962;SDS011;469;48.770;9.176;2023-01-04T10:36:09;2.85;;;1.13;;
962;SDS011;469;48.770;9.176;2023-01-04T10:38:39;2.92;;;1.10;;
962;SDS011;469;48.770;9.176;2023-01-04T10:41:09;5.65;;;1.25;;
962;SDS011;469;48.770;9.176;2023-01-04T10:43:40;3.53;;;0.70;;
962;SDS011;469;48.770;9.176;2023-01-04T10:46:08;5.00;;;1.27;;
962;SDS011;469;48.770;9.176;2023-01-04T10:48:39;3.75;;;1.25;;
962;SDS011;469;48.770;9.176;2023-01-04T10:51:09;3.70;;;1.90;;
962;SDS011;469;48.770;9.176;2023-01-04T10:53:39;2.47;;;1.10;;
962;SDS011;469;48.770;9.176;2023-01-04T10:56:11;7.53;;;1.90;;
962;SDS011;469;48.770;9.176;2023-01-04T10:58:45;4.05;;;1.40;;
962;SDS011;469;48.770;9.176;2023-01-04T11:01:15;2.40;;;1.20;;
962;SDS011;469;48.770;9.176;2023-01-04T11:03:45;7.53;;;2.90;;
962;SDS011;469;48.770;9.176;2023-01-04T11:06:16;8.00;;;2.78;;
962;SDS011;469;48.770;9.176;2023-01-04T11:08:46;6.65;;;1.75;;
962;SDS011;469;48.770;9.176;2023-01-04T11:11:15;9.57;;;2.60;;
962;SDS011;469;48.770;9.176;2023-01-04T11:13:46;2.72;;;1.05;;
962;SDS011;469;48.770;9.176;2023-01-04T11:16:14;4.95;;;1.02;;
962;SDS011;469;48.770;9.176;2023-01-04T11:18:41;2.15;;;1.10;;
962;SDS011;469;48.770;9.176;2023-01-04T11:21:09;3.15;;;1.52;;
962;SDS011;469;48.770;9.176;2023-01-04T11:23:38;3.22;;;1.05;;
962;SDS011;469;48.770;9.176;2023-01-04T11:26:06;2.58;;;1.00;;
962;SDS011;469;48.770;9.176;2023-01-04T11:28:35;4.65;;;1.08;;
962;SDS011;469;48.770;9.176;2023-01-04T11:31:12;5.97;;;1.52;;
962;SDS011;469;48.770;9.176;2023-01-04T11:33:52;2.50;;;1.38;;
962;SDS011;469;48.770;9.176;2023-01-04T11:36:34;2.65;;;1.00;;
962;SDS011;469;48.770;9.176;2023-01-04T11:39:01;3.03;;;1.45;;
962;SDS011;469;48.770;9.176;2023-01-04T11:41:29;2.95;;;1.40;;
962;SDS011;469;48.770;9.176;2023-01-04T11:43:57;3.97;;;1.67;;
962;SDS011;469;48.770;9.176;2023-01-04T11:46:26;5.72;;;2.33;;
962;SDS011;469;48.770;9.176;2023-01-04T11:48:55;4.47;;;1.90;;
962;SDS011;469;48.770;9.176;2023-01-04T11:51:35;3.97;;;1.73;;
962;SDS011;469;48.770;9.176;2023-01-04T11:54:04;2.72;;;1.40;;
962;SDS011;469;48.770;9.176;2023-01-04T11:56:33;3.95;;;1.40;;
962;SDS011;469;48.770;9.176;2023-01-04T11:59:01;8.75;;;2.70;;
962;SDS011;469;48.770;9.176;2023-01-04T12:01:33;8.85;;;1.98;;
962;SDS011;469;48.770;9.176;2023-01-04T12:04:01;4.22;;;1.35;;
962;SDS011;469;48.770;9.176;2023-01-04T12:06:40;11.38;;;1.80;;
962;SDS011;469;48.770;9.176;2023-01-04T12:09:11;3.10;;;1.30;;
962;SDS011;469;48.770;9.176;2023-01-04T13:25:41;2.15;;;1.00;;
962;SDS011;469;48.770;9.176;2023-01-04T13:28:18;6.05;;;1.15;;
962;SDS011;469;48.770;9.176;2023-01-04T13:30:45;3.33;;;1.45;;
962;SDS011;469;48.770;9.176;2023-01-04T15:02:14;2.85;;;1.20;;
962;SDS011;469;48.770;9.176;2023-01-04T15:04:41;3.33;;;1.27;;
962;SDS011;469;48.770;9.176;2023-01-04T15:07:22;3.85;;;1.17;;
962;SDS011;469;48.770;9.176;2023-01-04T15:09:59;2.90;;;1.05;;
962;SDS011;469;48.770;9.176;2023-01-04T15:12:26;3.08;;;1.20;;
962;SDS011;469;48.770;9.176;2023-01-04T15:14:53;7.38;;;1.30;;
962;SDS011;469;48.770;9.176;2023-01-04T15:17:22;2.67;;;0.90;;
962;SDS011;469;48.770;9.176;2023-01-04T15:19:49;9.20;;;1.25;;
962;SDS011;469;48.770;9.176;2023-01-04T15:22:16;2.30;;;0.90;;
962;SDS011;469;48.770;9.176;2023-01-04T15:24:44;6.78;;;1.45;;
962;SDS011;469;48.770;9.176;2023-01-04T15:27:11;2.85;;;1.00;;
962;SDS011;469;48.770;9.176;2023-01-04T15:29:41;6.70;;;1.40;;
962;SDS011;469;48.770;9.176;2023-01-04T15:32:15;2.20;;;0.80;;
962;SDS011;469;48.770;9.176;2023-01-04T15:34:46;2.33;;;0.90;;
962;SDS011;469;48.770;9.176;2023-01-04T15:37:16;2.10;;;0.90;;
962;SDS011;469;48.770;9.176;2023-01-04T15:39:45;2.28;;;1.08;;
962;SDS011;469;48.770;9.176;2023-01-04T15:42:12;2.13;;;0.80;;
962;SDS011;469;48.770;9.176;2023-01-04T15:44:57;1.40;;;0.70;;
962;SDS011;469;48.770;9.176;2023-01-04T15:47:29;4.85;;;1.17;;
962;SDS011;469;48.770;9.176;2023-01-04T15:49:58;6.93;;;1.20;;
962;SDS011;469;48.770;9.176;2023-01-04T15:52:27;4.47;;;1.50;;
962;SDS011;469;48.770;9.176;2023-01-04T15:54:57;4.30;;;0.80;;
962;SDS011;469;48.770;9.176;2023-01-04T15:57:26;4.22;;;1.08;;
962;SDS011;469;48.770;9.176;2023-01-04T15:59:53;3.83;;;1.20;;
962;SDS011;469;48.770;9.176;2023-01-04T16:02:25;3.05;;;0.90;;
962;SDS011;469;48.770;9.176;2023-01-04T16:04:54;2.45;;;1.30;;
962;SDS011;469;48.770;9.176;2023-01-04T16:07:23;4.75;;;0.93;;
962;SDS011;469;48.770;9.176;2023-01-04T16:09:50;3.17;;;1.20;;
962;SDS011;469;48.770;9.176;2023-01-04T16:12:17;3.38;;;1.23;;
962;SDS011;469;48.770;9.176;2023-01-04T16:15:02;4.35;;;1.40;;
962;SDS011;469;48.770;9.176;2023-01-04T16:17:31;4.53;;;1.77;;
962;SDS011;469;48.770;9.176;2023-01-04T16:19:59;5.28;;;1.20;;
962;SDS011;469;48.770;9.176;2023-01-04T16:22:32;2.92;;;1.27;;
962;SDS011;469;48.770;9.176;2023-01-04T16:25:00;2.15;;;0.80;;
962;SDS011;469;48.770;9.176;2023-01-04T16:27:27;2.92;;;1.05;;
962;SDS011;469;48.770;9.176;2023-01-04T16:29:57;4.82;;;1.30;;
962;SDS011;469;48.770;9.176;2023-01-04T16:32:24;1.65;;;0.70;;
962;SDS011;469;48.770;9.176;2023-01-04T16:34:51;3.15;;;1.55;;
962;SDS011;469;48.770;9.176;2023-01-04T16:37:18;4.55;;;1.20;;
962;SDS011;469;48.770;9.176;2023-01-04T16:39:48;6.20;;;1.58;;
962;SDS011;469;48.770;9.176;2023-01-04T16:42:15;6.68;;;1.20;;
962;SDS011;469;48.770;9.176;2023-01-04T16:44:42;2.42;;;1.08;;
962;SDS011;469;48.770;9.176;2023-01-04T16:47:10;9.07;;;3.45;;
962;SDS011;469;48.770;9.176;2023-01-04T16:49:37;3.45;;;1.27;;
962;SDS011;469;48.770;9.176;2023-01-04T16:52:04;1.90;;;1.00;;
962;SDS011;469;48.770;9.176;2023-01-04T16:54:34;3.22;;;1.25;;
962;SDS011;469;48.770;9.176;2023-01-04T16:57:02;2.97;;;1.13;;
962;SDS011;469;48.770;9.176;2023-01-04T16:59:29;2.80;;;0.90;;
962;SDS011;469;48.770;9.176;2023-01-04T17:01:56;2.85;;;1.27;;
962;SDS011;469;48.770;9.176;2023-01-04T17:04:24;4.68;;;1.40;;
962;SDS011;469;48.770;9.176;2023-01-04T17:06:51;4.00;;;0.98;;
962;SDS011;469;48.770;9.176;2023-01-04T17:09:19;3.35;;;1.15;;
962;SDS011;469;48.770;9.176;2023-01-04T17:11:46;4.50;;;0.82;;
962;SDS011;469;48.770;9.176;2023-01-04T17:14:23;1.45;;;0.70;;
962;SDS011;469;48.770;9.176;2023-01-04T17:16:50;2.35;;;0.98;;
962;SDS011;469;48.770;9.176;2023-01-04T17:19:18;3.75;;;1.30;;
962;SDS011;469;48.770;9.176;2023-01-04T17:21:45;1.95;;;0.90;;
962;SDS011;469;48.770;9.176;2023-01-04T17:24:12;2.33;;;0.98;;
962;SDS011;469;48.770;9.176;2023-01-04T17:26:40;1.90;;;1.00;;
962;SDS011;469;48.770;9.176;2023-01-04T17:29:07;2.30;;;0.80;;
962;SDS011;469;48.770;9.176;2023-01-04T17:31:36;2.78;;;1.30;;
962;SDS011;469;48.770;9.176;2023-01-04T17:34:04;5.55;;;1.30;;
962;SDS011;469;48.770;9.176;2023-01-04T17:36:31;2.58;;;1.10;;
962;SDS011;469;48.770;9.176;2023-01-04T17:38:59;1.65;;;0.90;;
962;SDS011;469;48.770;9.176;2023-01-04T17:41:27;3.42;;;1.20;;
962;SDS011;469;48.770;9.176;2023-01-04T17:43:55;2.92;;;1.08;;
962;SDS011;469;48.770;9.176;2023-01-04T17:46:24;3.05;;;1.10;;
962;SDS011;469;48.770;9.176;2023-01-04T17:48:52;3.08;;;0.85;;
962;SDS011;469;48.770;9.176;2023-01-04T17:51:20;8.43;;;3.53;;
962;SDS011;469;48.770;9.176;2023-01-04T17:53:51;3.80;;;1.25;;
962;SDS011;469;48.770;9.176;2023-01-04T17:56:19;1.70;;;0.70;;
962;SDS011;469;48.770;9.176;2023-01-04T17:58:46;3.33;;;0.80;;
962;SDS011;469;48.770;9.176;2023-01-04T18:01:13;5.00;;;1.20;;
962;SDS011;469;48.770;9.176;2023-01-04T18:03:43;2.17;;;0.80;;
962;SDS011;469;48.770;9.176;2023-01-04T18:06:12;4.05;;;0.90;;
962;SDS011;469;48.770;9.176;2023-01-04T18:08:41;2.10;;;0.80;;
962;SDS011;469;48.770;9.176;2023-01-04T18:11:08;2.30;;;0.95;;
962;SDS011;469;48.770;9.176;2023-01-04T18:13:36;6.63;;;1.52;;
962;SDS011;469;48.770;9.176;2023-01-04T18:16:04;3.72;;;1.27;;
962;SDS011;469;48.770;9.176;2023-01-04T18:18:32;3.70;;;1.42;;
962;SDS011;469;48.770;9.176;2023-01-04T18:21:06;3.08;;;1.60;;
962;SDS011;469;48.770;9.176;2023-01-04T18:23:35;3.47;;;1.15;;
962;SDS011;469;48.770;9.176;2023-01-04T18:26:02;1.83;;;0.60;;
962;SDS011;469;48.770;9.176;2023-01-04T18:28:29;4.05;;;1.85;;
962;SDS011;469;48.770;9.176;2023-01-04T18:30:56;2.85;;;1.10;;
962;SDS011;469;48.770;9.176;2023-01-04T18:33:23;2.55;;;0.85;;
962;SDS011;469;48.770;9.176;2023-01-04T18:35:53;3.67;;;1.10;;
962;SDS011;469;48.770;9.176;2023-01-04T18:38:20;2.28;;;0.95;;
962;SDS011;469;48.770;9.176;2023-01-04T18:40:49;2.20;;;1.00;;
962;SDS011;469;48.770;9.176;2023-01-04T18:43:16;5.10;;;0.75;;
962;SDS011;469;48.770;9.176;2023-01-04T18:45:45;3.40;;;0.85;;
962;SDS011;469;48.770;9.176;2023-01-04T18:48:12;1.70;;;0.80;;
962;SDS011;469;48.770;9.176;2023-01-04T18:50:39;4.90;;;1.10;;
962;SDS011;469;48.770;9.176;2023-01-04T18:53:06;3.92;;;1.25;;
962;SDS011;469;48.770;9.176;2023-01-04T18:55:36;3.00;;;1.00;;
962;SDS011;469;48.770;9.176;2023-01-04T18:58:04;1.73;;;0.80;;
962;SDS011;469;48.770;9.176;2023-01-04T19:00:31;5.00;;;0.90;;
962;SDS011;469;48.770;9.176;2023-01-04T19:02:58;1.92;;;0.82;;
962;SDS011;469;48.770;9.176;2023-01-04T19:05:25;1.95;;;0.80;;
962;SDS011;469;48.770;9.176;2023-01-04T19:07:53;3.15;;;1.15;;
962;SDS011;469;48.770;9.176;2023-01-04T19:10:20;1.48;;;0.63;;
962;SDS011;469;48.770;9.176;2023-01-04T19:12:47;2.10;;;0.63;;
962;SDS011;469;48.770;9.176;2023-01-04T19:15:15;1.60;;;0.68;;
962;SDS011;469;48.770;9.176;2023-01-04T19:17:42;2.20;;;0.90;;
962;SDS011;469;48.770;9.176;2023-01-04T19:20:09;1.85;;;0.80;;
962;SDS011;469;48.770;9.176;2023-01-04T19:22:37;3.95;;;0.80;;
962;SDS011;469;48.770;9.176;2023-01-04T19:25:05;2.65;;;0.80;;
962;SDS011;469;48.770;9.176;2023-01-04T19:27:32;1.20;;;0.68;;
962;SDS011;469;48.770;9.176;2023-01-04T19:29:59;5.10;;;1.02;;
962;SDS011;469;48.770;9.176;2023-01-04T19:32:27;2.17;;;1.00;;
962;SDS011;469;48.770;9.176;2023-01-04T19:34:54;0.95;;;0.60;;
962;SDS011;469;48.770;9.176;2023-01-04T19:37:21;3.65;;;1.50;;
962;SDS011;469;48.770;9.176;2023-01-04T19:39:48;2.90;;;1.00;;
962;SDS011;469;48.770;9.176;2023-01-04T19:42:15;1.45;;;0.65;;